< < Back
Terminal Aerodrome Forecast


Current Version              Previous Versions:   1  2  3  4  5  6  7  8  9  

Terminal Aerodrome Forecast

409
FTUS42 KCHS 260500
TAFCHS
TAF
KCHS 260526Z 2606/2706 27004KT P6SM SKC=

Latest METAR

534
SAUS80 KWBC 260700 CCB
MTRCHS
METAR KCHS 260656Z 00000KT 10SM CLR 12/08 A2993 RMK AO2 SLP135
T01220083


USA.gov is the U.S. government's official web portal to all federal, state and local government web resources and services.